Time;durP1;ratioP1;P1;durP2;ratioP2;P2;SDS_P1;SDS_P2;PMS_P1;PMS_P2;Temp;Humidity;BMP_temperature;BMP_pressure;BME280_temperature;BME280_humidity;BME280_pressure;Samples;Min_cycle;Max_cycle;Signal;HPM_P1;HPM_P2
2023/08/03 00:01:52;;;;;;;6.05;1.77;;;16.70;99.90;;;;;;4806190;29;20045;-52
2023/08/03 00:04:18;;;;;;;8.88;2.38;;;16.90;99.90;;;;;;4806830;29;20488;-54
2023/08/03 00:06:44;;;;;;;5.60;1.65;;;16.60;99.90;;;;;;4806773;29;20095;-50
2023/08/03 00:09:10;;;;;;;8.45;2.42;;;16.90;99.90;;;;;;4806841;29;20043;-52
2023/08/03 00:11:36;;;;;;;5.72;1.83;;;16.50;99.90;;;;;;4806819;29;20404;-52
2023/08/03 00:14:01;;;;;;;5.00;1.50;;;16.90;99.90;;;;;;4806775;29;20050;-50
2023/08/03 00:16:27;;;;;;;4.28;1.70;;;16.80;99.90;;;;;;4806672;29;20484;-55
2023/08/03 00:18:53;;;;;;;5.20;1.70;;;16.60;99.90;;;;;;4806667;29;20501;-51
2023/08/03 00:21:18;;;;;;;5.22;1.80;;;16.50;99.90;;;;;;4806542;29;20302;-55
2023/08/03 00:23:44;;;;;;;4.38;1.70;;;16.60;99.90;;;;;;4806452;29;20111;-49
2023/08/03 00:26:10;;;;;;;4.43;1.88;;;16.60;99.90;;;;;;4806345;29;20046;-52
2023/08/03 00:28:35;;;;;;;5.20;2.10;;;16.80;99.90;;;;;;4806578;29;20133;-51
2023/08/03 00:31:01;;;;;;;5.68;1.60;;;16.90;99.90;;;;;;4806242;29;20066;-50
2023/08/03 00:33:26;;;;;;;8.63;1.88;;;16.90;99.90;;;;;;4806112;29;20122;-51
2023/08/03 00:35:52;;;;;;;5.97;1.60;;;16.90;99.90;;;;;;4806248;29;20046;-53
2023/08/03 00:38:18;;;;;;;3.80;1.42;;;16.50;99.90;;;;;;4806081;29;20096;-51
2023/08/03 00:40:44;;;;;;;4.00;1.60;;;17.00;99.90;;;;;;4804682;29;20103;-52
2023/08/03 00:43:09;;;;;;;4.65;1.55;;;16.90;99.90;;;;;;4806191;29;20047;-50
2023/08/03 00:45:35;;;;;;;3.05;1.20;;;16.90;99.90;;;;;;4806222;29;20049;-53
2023/08/03 00:48:01;;;;;;;3.13;1.30;;;17.00;99.90;;;;;;4806334;29;20062;-52
2023/08/03 00:50:27;;;;;;;4.85;1.30;;;16.60;99.90;;;;;;4805702;29;20437;-51
2023/08/03 00:52:53;;;;;;;4.97;1.13;;;16.90;99.90;;;;;;4805984;29;20111;-50
2023/08/03 00:55:18;;;;;;;4.35;1.13;;;16.50;99.90;;;;;;4805283;29;20062;-51
2023/08/03 00:57:44;;;;;;;4.78;1.13;;;16.90;99.90;;;;;;4806101;29;20068;-52
2023/08/03 01:00:10;;;;;;;3.63;1.20;;;17.00;99.90;;;;;;4803601;29;20509;-51
2023/08/03 01:02:36;;;;;;;4.88;1.00;;;16.60;99.90;;;;;;4805997;29;20042;-53
2023/08/03 01:05:02;;;;;;;2.88;1.10;;;16.90;99.90;;;;;;4805443;29;20096;-49
2023/08/03 01:07:27;;;;;;;2.22;0.90;;;16.90;99.90;;;;;;4803609;29;20073;-50
2023/08/03 01:09:53;;;;;;;3.47;1.10;;;16.90;99.90;;;;;;4805840;29;20051;-49
2023/08/03 01:12:19;;;;;;;3.67;1.00;;;17.00;99.90;;;;;;4805024;29;20055;-49
2023/08/03 01:14:45;;;;;;;2.72;1.00;;;16.90;99.90;;;;;;4805424;29;20130;-51
2023/08/03 01:17:11;;;;;;;2.70;1.23;;;16.60;99.90;;;;;;4805205;29;20047;-53
2023/08/03 01:19:37;;;;;;;1.98;0.80;;;16.60;99.90;;;;;;4804211;29;20088;-53
2023/08/03 01:22:04;;;;;;;4.80;0.93;;;16.90;99.90;;;;;;4805466;29;20476;-50
2023/08/03 01:24:30;;;;;;;2.65;0.90;;;17.00;99.90;;;;;;4805081;29;20042;-53
2023/08/03 01:26:59;;;;;;;1.67;0.75;;;16.70;99.90;;;;;;4819023;29;20035;-52
2023/08/03 01:29:25;;;;;;;4.05;1.15;;;16.70;99.90;;;;;;4805122;29;20059;-50
2023/08/03 01:31:56;;;;;;;3.08;1.00;;;16.70;99.90;;;;;;4805328;29;20122;-52
2023/08/03 01:34:23;;;;;;;2.55;1.25;;;16.70;99.90;;;;;;4804885;29;20364;-53
2023/08/03 01:36:49;;;;;;;4.85;1.80;;;16.60;99.90;;;;;;4804948;29;20059;-49
2023/08/03 01:39:15;;;;;;;3.88;1.90;;;16.60;99.90;;;;;;4804911;29;20119;-50
2023/08/03 01:41:42;;;;;;;5.28;2.17;;;16.60;99.90;;;;;;4805109;29;20446;-52
2023/08/03 01:44:28;;;;;;;5.90;2.00;;;17.00;99.90;;;;;;4804912;29;20082;-54
2023/08/03 01:46:56;;;;;;;3.97;2.60;;;16.50;99.90;;;;;;4804860;29;20047;-52
2023/08/03 01:49:24;;;;;;;4.93;2.90;;;16.60;99.90;;;;;;4805111;29;20095;-52
2023/08/03 01:51:50;;;;;;;4.90;2.38;;;16.70;99.90;;;;;;4803453;29;20046;-51
2023/08/03 01:54:16;;;;;;;7.97;3.00;;;17.00;99.90;;;;;;4804628;29;20054;-52
2023/08/03 01:56:42;;;;;;;7.05;4.05;;;16.80;99.90;;;;;;4804670;29;20046;-52
2023/08/03 01:59:08;;;;;;;6.18;3.40;;;16.60;99.90;;;;;;4804641;29;20039;-52
2023/08/03 02:01:34;;;;;;;6.82;4.68;;;16.60;99.90;;;;;;4805154;29;20095;-50
2023/08/03 02:04:00;;;;;;;9.07;5.00;;;16.70;99.90;;;;;;4804748;29;20050;-50
2023/08/03 02:06:25;;;;;;;8.07;4.95;;;16.90;99.90;;;;;;4804842;29;20095;-51
2023/08/03 02:08:51;;;;;;;8.45;3.83;;;17.10;99.90;;;;;;4804729;29;20130;-52
2023/08/03 02:11:17;;;;;;;8.95;4.30;;;17.00;99.90;;;;;;4804377;29;20047;-50
2023/08/03 02:13:42;;;;;;;11.10;5.13;;;16.90;99.90;;;;;;4804812;29;20380;-50
2023/08/03 02:16:10;;;;;;;13.70;4.60;;;17.10;99.90;;;;;;4804687;29;20104;-53
2023/08/03 02:18:37;;;;;;;12.23;6.40;;;16.90;99.90;;;;;;4803160;29;20064;-48
2023/08/03 02:21:03;;;;;;;9.25;5.38;;;17.00;99.90;;;;;;4804441;29;20038;-49
2023/08/03 02:23:29;;;;;;;14.80;5.57;;;16.70;99.90;;;;;;4803945;29;20513;-53
2023/08/03 02:25:55;;;;;;;13.32;5.38;;;17.00;99.90;;;;;;4803858;29;20039;-53
2023/08/03 02:28:21;;;;;;;15.90;4.22;;;17.00;99.90;;;;;;4804228;29;20038;-54
2023/08/03 02:30:46;;;;;;;13.80;4.65;;;16.70;99.90;;;;;;4802921;29;20047;-49
2023/08/03 02:33:12;;;;;;;14.82;4.82;;;17.20;99.90;;;;;;4804656;29;20046;-54
2023/08/03 02:35:39;;;;;;;15.75;3.90;;;17.10;99.90;;;;;;4804150;29;20082;-53
2023/08/03 02:38:08;;;;;;;13.82;3.80;;;16.70;99.90;;;;;;4803983;29;20062;-49
2023/08/03 02:40:34;;;;;;;12.30;4.70;;;16.70;99.90;;;;;;4803849;29;20046;-52
2023/08/03 02:42:59;;;;;;;14.85;4.13;;;17.20;99.90;;;;;;4804001;29;20038;-53
2023/08/03 02:45:25;;;;;;;13.90;4.28;;;16.70;99.90;;;;;;4804329;29;20043;-48
2023/08/03 02:47:51;;;;;;;10.32;3.80;;;17.10;99.90;;;;;;4803496;29;20076;-53
2023/08/03 02:50:17;;;;;;;14.25;4.70;;;16.80;99.90;;;;;;4803832;29;20051;-51
2023/08/03 02:52:43;;;;;;;17.75;5.07;;;17.20;99.90;;;;;;4803024;29;20455;-53
2023/08/03 02:55:09;;;;;;;13.23;3.28;;;16.80;99.90;;;;;;4804091;29;20244;-53
2023/08/03 02:57:34;;;;;;;16.38;4.32;;;17.20;99.90;;;;;;4803669;29;20043;-53
2023/08/03 03:00:00;;;;;;;14.82;4.28;;;16.90;99.90;;;;;;4803794;29;20099;-51
2023/08/03 03:02:26;;;;;;;17.33;4.80;;;16.80;99.90;;;;;;4803587;29;20039;-54
2023/08/03 03:04:52;;;;;;;17.67;4.28;;;17.00;99.90;;;;;;4802554;29;20085;-51
2023/08/03 03:07:17;;;;;;;16.17;4.43;;;17.20;99.90;;;;;;4804041;29;20059;-51
2023/08/03 03:09:43;;;;;;;15.68;4.25;;;16.80;99.90;;;;;;4804418;29;20495;-52
2023/08/03 03:12:09;;;;;;;18.52;4.47;;;16.90;99.90;;;;;;4803984;29;20090;-52
2023/08/03 03:14:37;;;;;;;18.30;4.60;;;16.80;99.90;;;;;;4803580;29;20576;-50
2023/08/03 03:17:04;;;;;;;14.35;4.07;;;16.70;99.90;;;;;;4804063;29;20050;-53
2023/08/03 03:19:29;;;;;;;17.70;3.70;;;17.00;99.90;;;;;;4803619;29;20054;-52
2023/08/03 03:21:55;;;;;;;15.35;3.83;;;16.70;99.90;;;;;;4802343;29;20043;-53
2023/08/03 03:24:21;;;;;;;14.95;3.75;;;17.00;99.90;;;;;;4803868;29;20042;-52
2023/08/03 03:26:47;;;;;;;14.73;3.63;;;16.90;99.90;;;;;;4803293;29;20053;-51
2023/08/03 03:29:13;;;;;;;13.52;3.13;;;16.90;99.90;;;;;;4803558;29;20047;-50
2023/08/03 03:31:38;;;;;;;15.48;3.30;;;16.60;99.90;;;;;;4803773;29;20096;-49
2023/08/03 03:34:04;;;;;;;18.67;3.38;;;16.60;99.90;;;;;;4803956;29;20038;-50
2023/08/03 03:36:30;;;;;;;15.10;2.88;;;16.60;99.90;;;;;;4804351;29;20492;-54
2023/08/03 03:38:56;;;;;;;16.05;2.80;;;16.90;99.90;;;;;;4807470;29;20054;-55
2023/08/03 03:41:21;;;;;;;15.43;3.17;;;16.60;99.90;;;;;;4807031;29;20069;-53
2023/08/03 03:43:47;;;;;;;15.30;3.22;;;16.50;99.90;;;;;;4806942;29;20077;-51
2023/08/03 03:46:13;;;;;;;17.17;3.15;;;16.80;99.90;;;;;;4805441;29;20042;-55
2023/08/03 03:48:39;;;;;;;13.25;3.08;;;16.60;99.90;;;;;;4806897;29;20388;-51
2023/08/03 03:51:04;;;;;;;14.75;3.05;;;16.50;99.90;;;;;;4807109;29;20053;-52
2023/08/03 03:53:30;;;;;;;16.55;2.58;;;16.80;99.90;;;;;;4807048;29;20377;-48
2023/08/03 03:55:56;;;;;;;15.85;2.90;;;16.80;99.90;;;;;;4806685;29;20046;-54
2023/08/03 03:58:22;;;;;;;15.18;2.72;;;16.60;99.90;;;;;;4805726;29;20043;-54
2023/08/03 04:00:47;;;;;;;12.73;3.08;;;16.30;99.90;;;;;;4805993;29;20069;-54
2023/08/03 04:03:13;;;;;;;13.45;3.83;;;16.30;99.90;;;;;;4806899;29;20046;-52
2023/08/03 04:05:39;;;;;;;11.30;3.55;;;16.50;99.90;;;;;;4806622;29;20519;-53
2023/08/03 04:08:05;;;;;;;13.98;4.13;;;16.40;99.90;;;;;;4806734;29;20042;-55
2023/08/03 04:10:31;;;;;;;13.10;3.78;;;16.70;99.90;;;;;;4806758;29;20074;-48
2023/08/03 04:12:57;;;;;;;19.30;4.35;;;16.90;99.90;;;;;;4806678;29;20050;-52
2023/08/03 04:15:23;;;;;;;15.02;5.20;;;16.90;99.90;;;;;;4806828;29;20134;-48
2023/08/03 04:17:49;;;;;;;19.20;5.85;;;16.50;99.90;;;;;;4806134;29;20074;-53
2023/08/03 04:20:16;;;;;;;12.15;4.93;;;16.50;99.90;;;;;;4806412;29;20078;-52
2023/08/03 04:22:42;;;;;;;16.10;6.55;;;16.60;99.90;;;;;;4806522;29;20049;-51
2023/08/03 04:25:08;;;;;;;16.80;6.50;;;16.80;99.90;;;;;;4806350;29;20553;-51
2023/08/03 04:27:34;;;;;;;15.60;6.78;;;17.00;99.90;;;;;;4806106;29;20054;-52
2023/08/03 04:30:00;;;;;;;12.70;6.40;;;16.60;99.90;;;;;;4806192;29;20122;-51
2023/08/03 04:32:27;;;;;;;15.70;6.38;;;16.90;99.90;;;;;;4804971;29;20096;-50
2023/08/03 04:34:53;;;;;;;16.63;6.15;;;17.10;99.90;;;;;;4806333;29;20129;-54
2023/08/03 04:37:18;;;;;;;13.95;4.68;;;16.60;99.90;;;;;;4805750;29;20150;-53
2023/08/03 04:39:46;;;;;;;14.32;6.25;;;17.10;99.90;;;;;;4806585;29;20556;-49
2023/08/03 04:42:11;;;;;;;14.60;4.75;;;16.80;99.90;;;;;;4804693;29;20047;-48
2023/08/03 04:44:37;;;;;;;14.80;5.65;;;16.80;99.90;;;;;;4805932;29;20096;-49
2023/08/03 04:47:03;;;;;;;13.82;6.00;;;16.70;99.90;;;;;;4805265;29;20047;-52
2023/08/03 04:49:29;;;;;;;15.65;5.00;;;16.80;99.90;;;;;;4806275;29;20509;-54
2023/08/03 04:51:55;;;;;;;13.75;6.65;;;16.80;99.90;;;;;;4806250;29;20051;-50
2023/08/03 04:54:20;;;;;;;15.63;5.57;;;16.80;99.90;;;;;;4806022;29;20047;-52
2023/08/03 04:56:46;;;;;;;10.93;6.07;;;17.20;99.90;;;;;;4805665;29;20108;-52
2023/08/03 04:59:12;;;;;;;15.50;5.50;;;17.40;99.90;;;;;;4805592;29;20103;-50
2023/08/03 05:01:38;;;;;;;11.38;5.93;;;17.40;99.90;;;;;;4805386;29;20047;-51
2023/08/03 05:04:04;;;;;;;14.52;6.50;;;16.90;99.90;;;;;;4805668;29;20503;-50
2023/08/03 05:06:30;;;;;;;13.35;6.15;;;16.90;99.90;;;;;;4805760;29;20043;-53
2023/08/03 05:08:55;;;;;;;15.70;5.28;;;17.30;99.90;;;;;;4805214;29;20109;-54
2023/08/03 05:11:21;;;;;;;12.50;6.72;;;17.40;99.90;;;;;;4804025;29;20051;-54
2023/08/03 05:13:47;;;;;;;13.48;5.93;;;16.90;99.90;;;;;;4805608;29;20050;-52
2023/08/03 05:16:12;;;;;;;11.80;4.88;;;17.40;99.90;;;;;;4805579;29;20077;-52
2023/08/03 05:18:38;;;;;;;14.15;4.95;;;17.40;99.90;;;;;;4805237;29;20049;-53
2023/08/03 05:21:04;;;;;;;16.63;5.60;;;16.90;99.90;;;;;;4805925;29;20094;-50
2023/08/03 05:23:30;;;;;;;12.98;5.45;;;17.00;99.90;;;;;;4803475;29;20054;-52
2023/08/03 05:25:57;;;;;;;10.80;5.32;;;16.90;99.90;;;;;;4805112;29;20122;-51
2023/08/03 05:28:23;;;;;;;13.35;6.05;;;17.40;99.90;;;;;;4805121;29;20074;-52
2023/08/03 05:30:49;;;;;;;13.57;5.25;;;17.10;99.90;;;;;;4805196;29;20046;-52
2023/08/03 05:33:15;;;;;;;15.43;6.20;;;17.50;99.90;;;;;;4803918;29;20621;-52
2023/08/03 05:35:41;;;;;;;11.90;6.20;;;17.10;99.90;;;;;;4805050;29;20043;-52
2023/08/03 05:38:07;;;;;;;14.05;6.32;;;17.70;99.90;;;;;;4804941;29;20070;-49
2023/08/03 05:40:33;;;;;;;13.98;6.32;;;17.60;99.90;;;;;;4804831;29;20051;-51
2023/08/03 05:42:59;;;;;;;14.73;7.00;;;17.50;99.90;;;;;;4805144;29;20043;-51
2023/08/03 05:45:41;;;;;;;16.95;6.85;;;17.70;99.90;;;;;;4804755;29;20507;-52
2023/08/03 05:48:15;;;;;;;12.35;7.00;;;17.60;99.90;;;;;;4805187;29;20388;-53
2023/08/03 05:50:44;;;;;;;15.52;7.85;;;17.60;99.90;;;;;;4805173;29;20099;-51
2023/08/03 05:53:10;;;;;;;14.68;7.05;;;17.80;99.90;;;;;;4803645;29;20530;-49
2023/08/03 05:55:40;;;;;;;14.68;7.50;;;17.70;99.90;;;;;;4804676;29;20122;-51
2023/08/03 05:58:09;;;;;;;16.55;7.60;;;17.70;99.90;;;;;;4804806;29;20050;-51
2023/08/03 06:00:35;;;;;;;19.17;7.60;;;17.80;99.90;;;;;;4804803;29;20550;-51
2023/08/03 06:03:01;;;;;;;18.05;8.65;;;17.80;99.90;;;;;;4804764;29;20118;-52
2023/08/03 06:05:38;;;;;;;20.60;8.70;;;17.80;99.90;;;;;;4804988;29;20082;-54
2023/08/03 06:08:18;;;;;;;17.80;8.50;;;17.90;99.90;;;;;;4804825;29;20047;-47
2023/08/03 06:10:46;;;;;;;15.73;8.60;;;17.90;99.90;;;;;;4805467;29;20053;-52
2023/08/03 06:13:14;;;;;;;19.98;9.60;;;17.70;99.90;;;;;;4804492;29;20047;-50
2023/08/03 06:15:42;;;;;;;20.33;7.25;;;17.80;99.90;;;;;;4803973;29;20080;-50
2023/08/03 06:18:14;;;;;;;17.83;9.55;;;17.50;99.90;;;;;;4804728;29;20053;-50
2023/08/03 06:20:46;;;;;;;14.48;7.95;;;17.80;99.90;;;;;;4804780;29;20035;-53
2023/08/03 06:23:17;;;;;;;16.80;7.43;;;18.00;99.90;;;;;;4804487;29;20042;-52
2023/08/03 06:25:47;;;;;;;21.80;9.00;;;18.00;99.90;;;;;;4817972;29;20099;-51
2023/08/03 06:28:16;;;;;;;14.38;8.88;;;17.60;99.90;;;;;;4804030;29;20042;-50
2023/08/03 06:30:42;;;;;;;14.40;8.73;;;18.10;99.90;;;;;;4804335;29;20084;-52
2023/08/03 06:33:11;;;;;;;16.20;8.40;;;18.10;99.90;;;;;;4804238;29;20491;-49
2023/08/03 06:35:39;;;;;;;19.63;8.50;;;17.60;99.90;;;;;;4802938;29;20397;-48
2023/08/03 06:38:09;;;;;;;16.80;8.40;;;17.70;99.90;;;;;;4802746;29;20058;-51
2023/08/03 06:40:36;;;;;;;16.10;8.70;;;17.80;99.90;;;;;;4803859;29;20445;-52
2023/08/03 06:43:02;;;;;;;15.35;8.70;;;17.90;99.90;;;;;;4803658;29;20046;-48
2023/08/03 06:45:32;;;;;;;16.08;9.50;;;18.20;99.90;;;;;;4804243;29;20054;-51
2023/08/03 06:47:59;;;;;;;16.85;8.02;;;18.30;99.90;;;;;;4791299;29;20586;-51
2023/08/03 06:50:29;;;;;;;15.93;8.10;;;18.40;99.90;;;;;;4785787;29;20077;-50
2023/08/03 06:52:55;;;;;;;12.68;6.90;;;18.50;99.90;;;;;;4786483;29;20039;-50
2023/08/03 06:55:21;;;;;;;13.82;6.70;;;18.00;99.90;;;;;;4787162;29;20423;-49
2023/08/03 06:57:47;;;;;;;11.00;6.00;;;18.10;99.90;;;;;;4789971;29;20051;-50
2023/08/03 07:00:13;;;;;;;11.82;4.75;;;18.60;99.90;;;;;;4787152;29;20153;-52
2023/08/03 07:02:39;;;;;;;10.57;4.60;;;18.30;99.90;;;;;;4786649;29;20047;-52
2023/08/03 07:05:05;;;;;;;13.52;5.35;;;18.20;99.90;;;;;;4786705;29;20368;-49
2023/08/03 07:07:31;;;;;;;11.75;4.03;;;18.60;99.90;;;;;;4787007;29;20095;-54
2023/08/03 07:09:59;;;;;;;12.15;4.30;;;18.70;99.90;;;;;;4784879;29;20039;-52
2023/08/03 07:12:25;;;;;;;10.07;4.30;;;18.70;99.90;;;;;;4785371;29;20488;-49
2023/08/03 07:14:51;;;;;;;9.57;4.32;;;18.50;99.90;;;;;;4786478;29;20519;-53
2023/08/03 07:17:17;;;;;;;8.85;3.28;;;18.40;99.90;;;;;;4786606;29;20031;-52
2023/08/03 07:19:42;;;;;;;10.35;3.70;;;18.70;99.90;;;;;;4785941;29;20572;-50
2023/08/03 07:22:11;;;;;;;10.60;3.80;;;18.50;99.90;;;;;;4786508;29;20599;-53
2023/08/03 07:24:37;;;;;;;10.95;3.92;;;18.80;99.90;;;;;;4783396;29;20150;-53
2023/08/03 07:27:03;;;;;;;9.95;3.90;;;18.70;99.90;;;;;;4787553;29;20129;-51
2023/08/03 07:29:29;;;;;;;10.57;4.38;;;18.90;99.90;;;;;;4784887;29;20041;-51
2023/08/03 07:31:55;;;;;;;10.43;3.38;;;19.10;99.90;;;;;;4783555;29;20038;-48
2023/08/03 07:34:21;;;;;;;9.98;2.95;;;19.10;99.90;;;;;;4786624;29;20077;-52
2023/08/03 07:36:51;;;;;;;7.95;3.20;;;19.20;99.90;;;;;;4783119;29;20086;-48
2023/08/03 07:39:17;;;;;;;8.68;2.50;;;19.30;99.90;;;;;;4786250;29;20042;-50
2023/08/03 07:41:43;;;;;;;8.77;2.70;;;19.10;99.90;;;;;;4783321;29;20057;-49
2023/08/03 07:44:08;;;;;;;7.78;2.40;;;19.10;99.90;;;;;;4787216;29;20385;-51
2023/08/03 07:46:34;;;;;;;9.30;2.90;;;19.00;99.90;;;;;;4786039;29;20066;-49
2023/08/03 07:49:00;;;;;;;11.88;3.03;;;19.20;99.90;;;;;;4783951;29;20561;-53
2023/08/03 07:51:25;;;;;;;9.30;2.92;;;19.30;99.90;;;;;;4784518;29;20047;-49
2023/08/03 07:53:51;;;;;;;9.15;2.72;;;19.10;99.90;;;;;;4786711;29;20686;-52
2023/08/03 07:56:19;;;;;;;7.03;2.40;;;19.20;99.90;;;;;;4784109;29;20185;-48
2023/08/03 07:58:45;;;;;;;6.75;2.78;;;19.30;99.90;;;;;;4783255;29;20109;-51
2023/08/03 08:01:11;;;;;;;6.32;2.00;;;19.20;99.90;;;;;;4781550;29;20509;-52
2023/08/03 08:03:38;;;;;;;8.25;2.03;;;19.40;99.90;;;;;;4783607;29;20044;-50
2023/08/03 08:06:16;;;;;;;7.28;2.17;;;19.20;99.90;;;;;;4784768;29;20103;-55
2023/08/03 08:08:42;;;;;;;7.00;1.65;;;19.20;99.90;;;;;;4783576;29;20874;-52
2023/08/03 08:11:08;;;;;;;4.35;1.70;;;19.10;99.90;;;;;;4786975;29;20569;-51
2023/08/03 08:13:34;;;;;;;7.68;2.17;;;19.30;99.90;;;;;;4783794;29;20126;-49
2023/08/03 08:16:04;;;;;;;7.70;2.00;;;19.30;99.90;;;;;;4783662;29;20545;-48
2023/08/03 08:18:30;;;;;;;6.53;2.10;;;19.20;99.90;;;;;;4784349;29;20039;-50
2023/08/03 08:20:56;;;;;;;7.25;2.20;;;19.30;99.90;;;;;;4783060;29;20126;-52
2023/08/03 08:23:22;;;;;;;6.68;1.77;;;19.40;99.90;;;;;;4789234;29;20165;-51
2023/08/03 08:25:48;;;;;;;6.18;1.75;;;19.60;99.90;;;;;;4789113;29;20489;-50
2023/08/03 08:28:14;;;;;;;5.32;1.20;;;19.60;99.90;;;;;;4787429;29;20047;-50
2023/08/03 08:30:39;;;;;;;6.38;1.73;;;19.50;99.90;;;;;;4788894;29;20051;-52
2023/08/03 08:33:05;;;;;;;6.15;1.50;;;19.60;99.90;;;;;;4793219;29;20118;-50
2023/08/03 08:35:31;;;;;;;8.40;1.80;;;19.50;99.90;;;;;;4790772;29;20039;-48
2023/08/03 08:37:59;;;;;;;3.97;1.20;;;19.60;99.90;;;;;;4786715;29;20051;-52
2023/08/03 08:40:28;;;;;;;4.97;1.33;;;19.60;99.90;;;;;;4787467;29;20134;-49
2023/08/03 08:42:55;;;;;;;9.63;1.83;;;19.80;99.90;;;;;;4787978;29;21038;-48
2023/08/03 08:45:20;;;;;;;6.50;1.10;;;19.70;99.90;;;;;;4787341;29;20043;-52
2023/08/03 08:47:46;;;;;;;6.50;1.40;;;19.90;99.90;;;;;;4787862;29;20053;-50
2023/08/03 08:50:12;;;;;;;5.40;1.10;;;19.80;99.90;;;;;;4786966;29;20500;-52
2023/08/03 08:52:43;;;;;;;5.63;1.02;;;19.90;99.90;;;;;;4788527;29;20058;-50
2023/08/03 08:55:16;;;;;;;5.47;1.13;;;19.90;99.90;;;;;;4787321;29;20094;-51
2023/08/03 08:57:42;;;;;;;5.28;1.08;;;20.00;99.90;;;;;;4788041;29;20043;-53
2023/08/03 09:00:08;;;;;;;4.32;1.30;;;20.20;99.90;;;;;;4790099;29;20071;-51
2023/08/03 09:02:35;;;;;;;5.40;0.98;;;20.20;99.90;;;;;;4788832;29;20103;-52
2023/08/03 09:05:18;;;;;;;5.20;1.17;;;20.20;99.90;;;;;;4788841;29;20047;-50
2023/08/03 09:07:44;;;;;;;4.68;0.93;;;20.20;99.90;;;;;;4788431;29;20548;-51
2023/08/03 09:10:11;;;;;;;7.85;1.38;;;20.30;99.90;;;;;;4787805;29;20173;-50
2023/08/03 09:12:38;;;;;;;5.70;1.55;;;20.30;99.90;;;;;;4787563;29;20043;-50
2023/08/03 09:15:05;;;;;;;5.45;1.33;;;20.20;99.90;;;;;;4784896;29;20566;-49
2023/08/03 09:17:32;;;;;;;4.90;1.55;;;20.30;99.90;;;;;;4787480;29;20067;-50
2023/08/03 09:19:58;;;;;;;5.30;1.10;;;20.40;99.90;;;;;;4787030;29;20039;-52
2023/08/03 09:22:25;;;;;;;4.35;0.98;;;20.50;99.90;;;;;;4786534;29;20051;-50
2023/08/03 09:25:09;;;;;;;5.85;1.00;;;20.60;99.90;;;;;;4788281;29;20787;-50
2023/08/03 09:27:47;;;;;;;5.90;1.00;;;20.80;99.90;;;;;;4787686;29;20136;-52
2023/08/03 09:30:13;;;;;;;4.63;0.88;;;20.90;99.90;;;;;;4789804;29;20047;-50
2023/08/03 09:32:39;;;;;;;5.80;1.13;;;21.10;99.90;;;;;;4790841;29;20562;-51
2023/08/03 09:35:22;;;;;;;7.80;1.13;;;21.20;99.90;;;;;;4786226;29;20046;-47
2023/08/03 09:37:53;;;;;;;6.85;1.25;;;21.20;99.90;;;;;;4788094;29;20047;-51
2023/08/03 09:40:20;;;;;;;7.50;1.40;;;21.30;99.90;;;;;;4788191;29;20095;-52
2023/08/03 09:42:47;;;;;;;4.53;1.05;;;21.40;99.90;;;;;;4787379;29;20049;-49
2023/08/03 09:45:14;;;;;;;5.80;1.33;;;21.50;99.90;;;;;;4786738;29;20046;-51
2023/08/03 09:47:40;;;;;;;5.82;1.27;;;21.60;99.90;;;;;;4787652;29;20452;-50
2023/08/03 09:50:09;;;;;;;6.93;1.27;;;21.60;99.90;;;;;;4787892;29;20100;-52
2023/08/03 09:52:44;;;;;;;7.00;1.55;;;21.40;99.90;;;;;;4801836;29;20043;-49
2023/08/03 09:55:20;;;;;;;5.97;1.13;;;21.40;99.90;;;;;;4800375;29;20043;-49
2023/08/03 09:58:11;;;;;;;5.55;1.45;;;21.50;99.90;;;;;;4799771;29;20122;-50
2023/08/03 10:00:38;;;;;;;6.35;1.20;;;21.40;99.90;;;;;;4802404;29;20317;-50
2023/08/03 10:03:10;;;;;;;7.22;1.17;;;21.50;99.90;;;;;;4802912;29;20041;-48
2023/08/03 10:05:56;;;;;;;5.88;1.27;;;21.60;99.90;;;;;;4802783;29;20046;-49
2023/08/03 10:08:30;;;;;;;5.60;1.30;;;21.70;99.90;;;;;;4803160;29;20046;-49
2023/08/03 10:11:03;;;;;;;6.07;1.30;;;21.90;99.90;;;;;;4801549;29;20050;-50
2023/08/03 10:13:37;;;;;;;6.20;1.27;;;22.10;99.90;;;;;;4802852;29;20053;-51
2023/08/03 10:16:03;;;;;;;6.57;1.45;;;22.10;99.90;;;;;;4803063;29;20047;-48
2023/08/03 10:18:35;;;;;;;5.75;1.30;;;22.00;99.90;;;;;;4802435;29;20134;-50
2023/08/03 10:21:01;;;;;;;5.65;1.30;;;22.10;99.90;;;;;;4801408;29;20039;-52
2023/08/03 10:23:28;;;;;;;8.60;1.52;;;22.20;99.90;;;;;;4803810;29;20070;-52
2023/08/03 10:26:01;;;;;;;5.72;1.10;;;22.10;99.90;;;;;;4802041;29;20061;-51
2023/08/03 10:28:27;;;;;;;5.70;1.50;;;22.00;99.90;;;;;;4802644;29;20159;-47
2023/08/03 10:31:05;;;;;;;5.00;1.20;;;21.80;99.90;;;;;;4802609;29;20085;-50
2023/08/03 10:33:46;;;;;;;6.78;1.50;;;21.50;99.90;;;;;;4800904;29;20043;-51
2023/08/03 10:36:34;;;;;;;6.55;1.40;;;21.30;99.90;;;;;;4802497;29;20805;-49
2023/08/03 10:39:06;;;;;;;4.75;1.35;;;21.10;99.90;;;;;;4802941;29;20063;-47
2023/08/03 10:41:37;;;;;;;6.40;1.27;;;21.00;99.90;;;;;;4801993;29;20039;-52
2023/08/03 10:44:09;;;;;;;4.03;1.05;;;21.10;99.90;;;;;;4802911;29;20045;-51
2023/08/03 10:46:41;;;;;;;4.25;1.00;;;21.30;99.90;;;;;;4801625;29;20042;-50
2023/08/03 10:49:18;;;;;;;5.40;1.00;;;21.70;99.90;;;;;;4801506;29;20089;-49
2023/08/03 10:52:12;;;;;;;7.65;1.38;;;21.90;99.90;;;;;;4797015;29;20074;-53
2023/08/03 10:54:38;;;;;;;7.85;1.25;;;22.10;99.90;;;;;;4796606;29;20121;-50
2023/08/03 10:57:16;;;;;;;4.85;1.00;;;22.10;99.90;;;;;;4798553;29;20117;-50
2023/08/03 10:59:57;;;;;;;3.55;0.90;;;21.80;99.90;;;;;;4799107;29;20117;-49
2023/08/03 11:02:28;;;;;;;3.97;0.93;;;21.50;99.90;;;;;;4799829;29;20383;-50
2023/08/03 11:04:55;;;;;;;5.07;1.35;;;21.10;99.90;;;;;;4798915;29;20050;-50
2023/08/03 11:07:34;;;;;;;4.88;1.33;;;20.80;99.90;;;;;;4799158;29;20130;-49
2023/08/03 11:10:01;;;;;;;3.47;1.08;;;20.80;99.90;;;;;;4800038;29;20039;-51
2023/08/03 11:12:27;;;;;;;5.93;1.20;;;21.00;99.90;;;;;;4798345;29;20105;-50
2023/08/03 11:14:55;;;;;;;7.50;1.40;;;21.10;99.90;;;;;;4798254;29;20385;-52
2023/08/03 11:17:24;;;;;;;6.60;1.50;;;21.30;99.90;;;;;;4799005;29;20415;-52
2023/08/03 11:19:50;;;;;;;9.45;1.67;;;21.20;99.90;;;;;;4799435;29;20130;-51
2023/08/03 11:22:16;;;;;;;6.75;1.60;;;21.00;99.90;;;;;;4800548;29;20055;-52
2023/08/03 11:24:42;;;;;;;8.07;1.92;;;20.80;99.90;;;;;;4800515;29;20090;-52
2023/08/03 11:27:10;;;;;;;10.35;2.10;;;20.80;99.90;;;;;;4815710;29;20054;-49
2023/08/03 11:29:36;;;;;;;6.45;1.52;;;20.70;99.90;;;;;;4800178;29;20046;-51
2023/08/03 11:32:04;;;;;;;11.43;1.55;;;20.70;99.90;;;;;;4801975;29;20395;-52
2023/08/03 11:34:30;;;;;;;11.02;1.88;;;20.70;99.90;;;;;;4800137;29;20046;-51
2023/08/03 11:36:56;;;;;;;7.97;1.83;;;20.70;99.90;;;;;;4800290;29;20058;-51
2023/08/03 11:39:22;;;;;;;9.40;1.85;;;20.90;99.90;;;;;;4800145;29;20057;-50
2023/08/03 11:41:50;;;;;;;6.13;1.50;;;20.80;99.90;;;;;;4800730;29;20058;-50
2023/08/03 11:44:22;;;;;;;7.35;1.75;;;20.90;99.90;;;;;;4802046;29;20046;-50
2023/08/03 11:47:08;;;;;;;8.93;1.73;;;20.90;99.90;;;;;;4799561;29;20043;-53
2023/08/03 11:49:35;;;;;;;8.65;1.48;;;20.80;99.90;;;;;;4800882;29;20074;-49
2023/08/03 11:52:01;;;;;;;6.22;1.40;;;21.00;99.90;;;;;;4802813;29;20513;-50
2023/08/03 11:54:32;;;;;;;6.60;1.40;;;21.10;99.90;;;;;;4801791;29;20437;-51
2023/08/03 11:59:47;;;;;;;6.07;1.27;;;21.00;99.90;;;;;;4804284;29;20192;-52
2023/08/03 12:02:13;;;;;;;8.30;1.45;;;21.00;99.90;;;;;;4805385;29;20039;-49
2023/08/03 12:04:39;;;;;;;6.93;1.58;;;20.80;99.90;;;;;;4803401;29;20119;-50
2023/08/03 12:07:06;;;;;;;5.22;1.02;;;20.80;99.90;;;;;;4799837;29;20057;-51
2023/08/03 12:09:40;;;;;;;7.65;1.60;;;20.70;99.90;;;;;;4801179;29;20220;-51
2023/08/03 12:12:09;;;;;;;5.80;1.38;;;20.60;99.90;;;;;;4805582;29;20038;-53
2023/08/03 12:14:35;;;;;;;6.70;1.40;;;20.60;99.90;;;;;;4805893;29;20065;-52
2023/08/03 12:17:01;;;;;;;6.40;1.35;;;20.60;99.90;;;;;;4806825;29;20035;-49
2023/08/03 12:19:33;;;;;;;5.82;1.40;;;20.60;99.90;;;;;;4805998;29;20080;-49
2023/08/03 12:22:03;;;;;;;6.00;1.50;;;20.60;99.90;;;;;;4806845;29;20043;-50
2023/08/03 12:24:29;;;;;;;9.32;1.80;;;20.60;99.90;;;;;;4806771;29;20047;-49
2023/08/03 12:26:55;;;;;;;4.88;1.30;;;20.80;99.90;;;;;;4805872;29;20047;-49
2023/08/03 12:29:21;;;;;;;6.05;1.52;;;21.00;99.90;;;;;;4804850;29;20055;-47
2023/08/03 12:31:47;;;;;;;7.28;1.52;;;21.40;99.90;;;;;;4806229;29;20114;-48
2023/08/03 12:34:13;;;;;;;7.28;1.80;;;21.40;99.90;;;;;;4806501;29;20365;-51
2023/08/03 12:36:39;;;;;;;7.97;2.20;;;21.40;99.90;;;;;;4804237;29;20066;-52
2023/08/03 12:39:05;;;;;;;8.10;1.73;;;21.40;99.90;;;;;;4803900;29;20079;-50
2023/08/03 12:41:31;;;;;;;8.00;1.90;;;21.50;99.90;;;;;;4806228;29;20047;-51
2023/08/03 12:43:57;;;;;;;7.25;2.08;;;21.50;99.90;;;;;;4804825;29;20108;-51
2023/08/03 12:46:23;;;;;;;8.73;1.60;;;21.60;99.90;;;;;;4806104;29;20453;-51
2023/08/03 12:48:50;;;;;;;6.28;1.30;;;21.20;99.90;;;;;;4805256;29;20090;-52